Latest Coastal Weather Observations for Kiama

IDN60701

Issued at 3:41 pm EST Saturday 24 August 2019 (issued every 10 minutes, with the page automatically refreshed every 10 minutes)

About coastal observations | Map of coastal stations | Coastal observations for NSW | Marine services | Other Formats
Station Details ID: 068242 Name: KIAMA (BOMBO HEADLAND) Lat: -34.65 Lon: 150.86 Height: 15.5 m
Data from the previous 72 hours. | See also: Recent months at Kiama
Date/Time
EST
Wind Sea
Height
m
Swell Vis
km
Cloud Weather Temp
°C
Press
hPa
Rain since
9am
mm
Dir  Spd
kts
Gust
kts
Height
m
Period
s
Dir
24/03:30pm NW 8 14 - - - - - - - 23.9 - 0.0
24/03:00pm W 8 15 - - - - - - - 24.1 - 0.0
24/02:30pm WNW 8 14 - - - - - - - 24.1 - 0.0
24/02:00pm WSW 10 21 - - - - - - - 23.3 - 0.0
24/01:30pm WNW 9 18 - - - - - - - 23.5 - 0.0
24/01:00pm WSW 10 16 - - - - - - - 23.5 - 0.0
24/12:30pm W 8 14 - - - - - - - 23.0 - 0.0
24/12:00pm W 8 15 - - - - - - - 22.6 - 0.0
24/11:30am W 6 14 - - - - - - - 22.1 - 0.0
24/11:00am W 7 10 - - - - - - - 21.5 - 0.0
24/10:30am WSW 6 12 - - - - - - - 20.5 - 0.0
24/10:00am W 5 12 - - - - - - - 19.8 - 0.0
24/09:30am W 8 16 - - - - - - - 19.5 - 0.0
24/09:00am WNW 6 11 - - - - - - - 18.3 - 0.0
24/08:30am NNE 3 5 - - - - - - - 16.2 - 0.0
24/08:00am NNE 3 4 - - - - - - - 15.5 - 0.0
24/07:30am NNW 2 3 - - - - - - - 12.9 - 0.0
24/07:00am WNW 3 5 - - - - - - - 11.1 - 0.0
24/06:30am W 1 3 - - - - - - - 10.1 - 0.0
24/06:00am CALM 0 3 - - - - - - - 10.1 - 0.0
24/05:30am CALM 0 0 - - - - - - - 10.6 - 0.0
24/05:00am E 1 5 - - - - - - - 11.1 - 0.0
24/04:30am S 2 4 - - - - - - - 10.8 - 0.0
24/04:00am SSW 3 4 - - - - - - - 9.3 - 0.0
24/03:30am SW 2 3 - - - - - - - 9.5 - 0.0
24/03:00am SW 1 2 - - - - - - - 10.3 - 0.0
24/02:30am WNW 2 3 - - - - - - - 8.8 - 0.0
24/02:00am CALM 0 1 - - - - - - - 8.5 - 0.0
24/01:30am W 3 4 - - - - - - - 8.6 - 0.0
24/01:00am NW 4 6 - - - - - - - 10.4 - 0.0
24/12:30am NW 5 6 - - - - - - - 10.7 - 0.0
24/12:00am NW 3 4 - - - - - - - 11.4 - 0.0
 
Date/Time
EST
Wind Sea
Height
m
Swell Vis
km
Cloud Weather Temp
°C
Press
hPa
Rain since
9am
mm
Dir  Spd
kts
Gust
kts
Height
m
Period
s
Dir
23/11:30pm WNW 5 6 - - - - - - - 11.2 - 0.0
23/11:00pm NW 3 5 - - - - - - - 10.7 - 0.0
23/10:30pm WNW 4 5 - - - - - - - 10.4 - 0.0
23/10:00pm NNW 3 5 - - - - - - - 10.7 - 0.0
23/09:30pm NW 3 5 - - - - - - - 10.7 - 0.0
23/09:00pm NW 3 4 - - - - - - - 11.2 - 0.0
23/08:30pm NW 4 5 - - - - - - - 11.7 - 0.0
23/08:00pm W 3 5 - - - - - - - 10.6 - 0.0
23/07:30pm WNW 4 5 - - - - - - - 11.8 - 0.0
23/07:00pm W 6 7 - - - - - - - 11.5 - 0.0
23/06:30pm W 5 6 - - - - - - - 12.3 - 0.0
23/06:00pm NW 5 7 - - - - - - - 13.6 - 0.0
23/05:30pm N 6 12 - - - - - - - 14.3 - 0.0
23/05:00pm N 8 12 - - - - - - - 14.8 - 0.0
23/04:30pm N 8 12 - - - - - - - 15.1 - 0.0
23/04:00pm N 9 12 - - - - - - - 15.3 - 0.0
23/03:30pm N 8 12 - - - - - - - 15.6 - 0.0
23/03:00pm NNE 8 11 - - - - - - - 15.4 - 0.0
23/02:30pm NNE 8 12 - - - - - - - 15.9 - 0.0
23/02:00pm NNE 8 11 - - - - - - - 16.1 - 0.0
23/01:30pm NNE 8 11 - - - - - - - 16.4 - 0.0
23/01:00pm NNE 9 13 - - - - - - - 15.9 - 0.0
23/12:30pm NNE 9 12 - - - - - - - 15.9 - 0.0
23/12:00pm NNE 5 8 - - - - - - - 15.4 - 0.0
23/11:30am NE 4 7 - - - - - - - 15.1 - 0.0
23/11:00am ESE 4 6 - - - - - - - 14.1 - 0.0
23/10:30am SSE 1 4 - - - - - - - 13.8 - 0.0
23/10:00am SW 4 11 - - - - - - - 13.6 - 0.0
23/09:30am WSW 5 8 - - - - - - - 12.8 - 0.0
23/09:00am WSW 6 9 - - - - - - - 12.1 - 0.0
23/08:30am W 6 9 - - - - - - - 11.0 - 0.0
23/08:00am WSW 8 10 - - - - - - - 10.6 - 0.0
23/07:30am WSW 6 10 - - - - - - - 10.5 - 0.0
23/07:00am SW 7 9 - - - - - - - 10.5 - 0.0
23/06:30am SW 8 12 - - - - - - - 10.8 - 0.0
23/06:00am SSW 7 11 - - - - - - - 11.1 - 0.0
23/05:30am SSW 8 13 - - - - - - - 10.9 - 0.0
23/05:00am SSW 11 15 - - - - - - - 11.0 - 0.0
23/04:30am SSW 11 15 - - - - - - - 11.1 - 0.0
23/04:00am SSW 11 16 - - - - - - - 11.1 - 0.0
23/03:30am SSW 11 17 - - - - - - - 11.0 - 0.0
23/03:00am SSW 9 13 - - - - - - - 10.9 - 0.0
23/02:30am SSW 11 15 - - - - - - - 10.8 - 0.0
23/02:00am SSW 11 16 - - - - - - - 10.8 - 0.0
23/01:30am SSW 12 17 - - - - - - - 11.0 - 0.0
23/01:00am SSW 13 17 - - - - - - - 11.1 - 0.0
23/12:30am S 15 18 - - - - - - - 11.5 - 0.0
23/12:00am S 15 18 - - - - - - - 11.4 - 0.0
 
Date/Time
EST
Wind Sea
Height
m
Swell Vis
km
Cloud Weather Temp
°C
Press
hPa
Rain since
9am
mm
Dir  Spd
kts
Gust
kts
Height
m
Period
s
Dir
22/11:30pm SSW 15 19 - - - - - - - 11.5 - 0.0
22/11:00pm SSW 14 19 - - - - - - - 11.8 - 0.0
22/10:30pm SSW 10 17 - - - - - - - 12.1 - 0.0
22/10:00pm SSW 11 20 - - - - - - - 12.5 - 0.0
22/09:30pm SSW 12 20 - - - - - - - 12.7 - 0.0
22/09:00pm S 17 23 - - - - - - - 13.4 - 0.0
22/08:30pm S 19 26 - - - - - - - 13.5 - 0.0
22/08:00pm S 19 27 - - - - - - - 13.7 - 0.0
22/07:30pm S 19 25 - - - - - - - 13.9 - 0.0
22/07:00pm S 20 27 - - - - - - - 13.8 - 0.0
22/06:30pm S 24 31 - - - - - - - 13.9 - 0.0
22/06:00pm S 22 28 - - - - - - - 13.9 - 0.0
22/05:30pm S 22 30 - - - - - - - 13.9 - 0.0
22/05:00pm S 25 34 - - - - - - - 14.1 - 0.0
22/04:38pm S 24 34 - - - - - - - 14.2 - 0.0
22/04:30pm S 26 33 - - - - - - - 14.3 - 0.0
22/04:09pm S 28 38 - - - - - - - 14.3 - 0.0
22/04:00pm S 30 38 - - - - - - - 14.2 - 0.0
22/03:30pm S 30 39 - - - - - - - 14.4 - 0.0
22/03:02pm S 28 42 - - - - - - - 14.4 - 0.0
22/03:00pm S 28 37 - - - - - - - 14.3 - 0.0
22/02:46pm S 27 37 - - - - - - - 14.3 - 0.0
22/02:30pm S 27 33 - - - - - - - 14.5 - 0.0
22/02:12pm SSE 28 39 - - - - - - - 14.4 - 0.0
22/02:00pm S 28 37 - - - - - - - 14.7 - 0.0
22/01:30pm S 29 39 - - - - - - - 14.7 - 0.0
22/01:25pm SSE 29 39 - - - - - - - 14.6 - 0.0
22/01:00pm SSE 30 39 - - - - - - - 14.4 - 0.0
22/12:38pm SSE 30 41 - - - - - - - 14.7 - 0.0
22/12:30pm SSE 29 37 - - - - - - - 14.7 - 0.0
22/12:05pm SSE 29 39 - - - - - - - 14.6 - 0.0
22/12:00pm S 28 36 - - - - - - - 14.7 - 0.0
22/11:30am S 28 35 - - - - - - - 14.7 - 0.0
22/11:03am S 27 39 - - - - - - - 14.7 - 0.0
22/11:00am S 27 35 - - - - - - - 14.9 - 0.0
22/10:30am SSE 24 33 - - - - - - - 15.1 - 0.0
22/10:15am S 16 31 - - - - - - - 17.1 - 0.0
22/10:00am SSW 13 20 - - - - - - - 17.0 - 0.0
22/09:45am SSW 10 20 - - - - - - - 16.9 - 0.0
22/09:30am SW 10 15 - - - - - - - 16.9 - 0.0
22/09:00am WSW 18 26 - - - - - - - 16.8 - 0.0
22/08:30am WSW 18 32 - - - - - - - 16.2 - 0.0
22/08:00am WSW 17 29 - - - - - - - 15.8 - 0.0
22/07:32am WSW 16 29 - - - - - - - 15.5 - 0.0
22/07:30am WSW 15 24 - - - - - - - 15.4 - 0.0
22/07:09am WSW 19 30 - - - - - - - 15.2 - 0.0
22/07:00am WSW 19 27 - - - - - - - 15.2 - 0.0
22/06:30am SW 15 25 - - - - - - - 15.0 - 0.0
22/06:05am WSW 15 25 - - - - - - - 15.1 - 0.0
22/06:00am WSW 16 25 - - - - - - - 15.1 - 0.0
22/05:31am WSW 15 28 - - - - - - - 15.2 - 0.0
22/05:30am WSW 14 28 - - - - - - - 15.2 - 0.0
22/05:00am WSW 17 28 - - - - - - - 15.3 - 0.0
22/04:43am WSW 16 29 - - - - - - - 15.3 - 0.0
22/04:30am SW 14 25 - - - - - - - 15.3 - 0.0
22/04:00am SW 12 28 - - - - - - - 15.4 - 0.0
22/03:30am SW 13 22 - - - - - - - 15.5 - 0.0
22/03:00am SW 17 29 - - - - - - - 15.4 - 0.0
22/02:37am SW 15 28 - - - - - - - 15.7 - 0.0
22/02:30am SW 12 25 - - - - - - - 15.6 - 0.0
22/02:00am SW 15 27 - - - - - - - 16.0 - 0.0
22/01:30am SW 17 33 - - - - - - - 16.1 - 0.0
22/01:06am SW 15 30 - - - - - - - 16.0 - 0.0
22/01:00am SW 14 27 - - - - - - - 16.0 - 0.0
22/12:37am SW 15 29 - - - - - - - 16.0 - 0.0
22/12:30am SW 15 29 - - - - - - - 15.8 - 0.0
22/12:00am SW 15 27 - - - - - - - 15.8 - 0.0
 
Date/Time
EST
Wind Sea
Height
m
Swell Vis
km
Cloud Weather Temp
°C
Press
hPa
Rain since
9am
mm
Dir  Spd
kts
Gust
kts
Height
m
Period
s
Dir
21/11:30pm SW 22 37 - - - - - - - 15.9 - 0.0
21/11:00pm SW 19 31 - - - - - - - 15.8 - 0.0
21/10:30pm WSW 24 37 - - - - - - - 16.2 - 0.0
21/10:00pm WSW 21 35 - - - - - - - 16.3 - 0.0
21/09:30pm WSW 23 35 - - - - - - - 16.3 - 0.0
21/09:00pm WSW 21 39 - - - - - - - 16.3 - 0.0
21/08:30pm WSW 22 37 - - - - - - - 16.5 - 0.0
21/08:00pm WSW 22 32 - - - - - - - 16.5 - 0.0
21/07:30pm SW 26 41 - - - - - - - 16.8 - 0.0
21/07:00pm WSW 21 35 - - - - - - - 16.8 - 0.0
21/06:30pm WSW 24 39 - - - - - - - 17.0 - 0.0
21/06:00pm WSW 19 31 - - - - - - - 17.3 - 0.0
21/05:30pm WSW 21 33 - - - - - - - 17.7 - 0.0
21/05:00pm WSW 21 33 - - - - - - - 18.2 - 0.0
21/04:30pm WSW 26 37 - - - - - - - 18.6 - 0.0
21/04:00pm WSW 20 32 - - - - - - - 19.2 - 0.0

Other formats

Comma delimited format used in spreadsheet applications
http://www.bom.gov.au/fwo/IDN60701/IDN60701.95749.axf

JavaScript Object Notation format (JSON) in row-major order
http://www.bom.gov.au/fwo/IDN60701/IDN60701.95749.json

Data quality

Most of these data are generated automatically and are frequently updated. Quality checks on data are not normally performed. It is possible for incorrect values to appear. Refer to information at About Latest Weather Observations and please check the disclaimer before using these data.